KGGE

Georgetown County Airport

Georgetown, South Carolina, USA
METAR KGGE 200655Z AUTO 00000KT 1/4SM FG OVC003 13/13 A3042 RMK AO2
Observed Flight Rules
Feb-20 @ 06:55 UTC (32 minutes ago) Instrument Flight Rules
Wind Visibility Clouds Conditions
Calm 1/4 miles
  • Overcast at 300' AGL
  • Fog
Temperatures Readings
Current 13°C / 55°F
Dewpoint 13°C / 55°F
Humidity 100%
Altimeter 30.42" Hg
Pressure 1030 hPa
Elevation 12
METAR KGGE 200655Z AUTO 00000KT 1/4SM FG OVC003 13/13 A3042 RMK AO2
Observed Flight Rules
Feb-20 @ 06:55 UTC
(32 minutes ago)
LIFR
Wind Visibility
Calm 1/4 miles
Clouds
  • Overcast at 300' AGL
Conditions
  • Fog
Temperature Dewpoint
13°C / 55°F 13°C / 55°F
Humidity Altimeter Pressure
100% 30.42" Hg 1030 hPa